Time;durP1;ratioP1;P1;durP2;ratioP2;P2;SDS_P1;SDS_P2;PMS_P1;PMS_P2;Temp;Humidity;BMP_temperature;BMP_pressure;BME280_temperature;BME280_humidity;BME280_pressure;Samples;Min_cycle;Max_cycle;Signal;HPM_P1;HPM_P2
2022/11/11 00:00:34;;;;;;;8.68;5.85;;;6.20;83.80;;;;;;5008213;28;20033;-61
2022/11/11 00:03:00;;;;;;;8.88;5.80;;;6.10;83.90;;;;;;5005036;28;20034;-59
2022/11/11 00:05:26;;;;;;;9.18;5.60;;;6.10;84.00;;;;;;5007228;28;20033;-61
2022/11/11 00:07:59;;;;;;;10.13;6.15;;;6.10;84.20;;;;;;5007508;28;20585;-61
2022/11/11 00:10:29;;;;;;;10.15;6.13;;;6.10;84.50;;;;;;5006299;28;20029;-61
2022/11/11 00:12:59;;;;;;;9.57;5.57;;;6.10;84.50;;;;;;5003976;28;20034;-62
2022/11/11 00:15:25;;;;;;;14.27;6.30;;;6.10;84.40;;;;;;5006443;28;20502;-62
2022/11/11 00:26:05;;;;;;;9.82;4.97;;;6.10;85.10;;;;;;5008339;28;19919;-62
2022/11/11 00:28:31;;;;;;;9.70;5.22;;;6.20;84.50;;;;;;5006599;28;20038;-61
2022/11/11 00:31:09;;;;;;;16.98;5.90;;;6.20;84.40;;;;;;5007147;28;20045;-60
2022/11/11 00:33:35;;;;;;;10.18;6.05;;;6.20;84.70;;;;;;5007195;28;20042;-64
2022/11/11 00:36:01;;;;;;;11.43;5.88;;;6.10;84.50;;;;;;5006099;28;20030;-60
2022/11/11 00:38:45;;;;;;;22.50;6.30;;;6.10;84.70;;;;;;5000272;28;20401;-61
2022/11/11 00:41:13;;;;;;;24.63;6.28;;;6.10;85.10;;;;;;4998539;28;20044;-61
2022/11/11 00:43:39;;;;;;;16.63;6.03;;;6.10;85.40;;;;;;5002169;28;20121;-59
2022/11/11 00:51:33;;;;;;;12.35;4.40;;;6.10;86.00;;;;;;5004214;28;20100;-60
2022/11/11 00:53:59;;;;;;;9.98;4.38;;;6.20;86.20;;;;;;5007593;28;20030;-61
2022/11/11 00:56:24;;;;;;;17.23;4.80;;;6.20;86.30;;;;;;5007174;28;20030;-59
2022/11/11 00:58:50;;;;;;;18.58;4.38;;;6.20;86.50;;;;;;5006960;28;20445;-60
2022/11/11 01:01:16;;;;;;;10.57;4.88;;;6.30;86.50;;;;;;5005599;28;20103;-61
2022/11/11 01:03:41;;;;;;;11.30;5.05;;;6.30;86.60;;;;;;5005109;28;20092;-62
2022/11/11 01:06:10;;;;;;;15.40;4.40;;;6.30;86.50;;;;;;5005861;28;20434;-59
2022/11/11 01:08:35;;;;;;;15.20;4.93;;;6.30;86.50;;;;;;5003507;28;20042;-59
2022/11/11 01:11:01;;;;;;;13.75;4.47;;;6.40;86.50;;;;;;4997284;28;20038;-61
2022/11/11 01:13:32;;;;;;;23.60;5.00;;;6.40;86.30;;;;;;5001998;28;20677;-62
2022/11/11 01:16:04;;;;;;;11.10;4.95;;;6.40;86.40;;;;;;5000182;28;20042;-59
2022/11/11 01:18:30;;;;;;;8.60;4.43;;;6.50;86.40;;;;;;5002041;28;20598;-60
2022/11/11 01:21:14;;;;;;;9.10;4.30;;;6.50;86.40;;;;;;5002600;28;20383;-63
2022/11/11 01:23:41;;;;;;;14.02;4.80;;;6.50;86.50;;;;;;5001602;28;20068;-60
2022/11/11 01:26:13;;;;;;;20.27;4.40;;;6.50;86.30;;;;;;5003968;28;20524;-62
2022/11/11 01:28:39;;;;;;;14.52;4.55;;;6.60;86.50;;;;;;5009105;28;20520;-60
2022/11/11 01:31:08;;;;;;;10.70;4.90;;;6.60;86.50;;;;;;5009427;28;20129;-62
2022/11/11 01:33:34;;;;;;;11.77;4.60;;;6.60;86.50;;;;;;5009333;28;20350;-59
2022/11/11 01:36:03;;;;;;;18.55;4.68;;;6.60;86.50;;;;;;5005798;28;20260;-62
2022/11/11 01:38:29;;;;;;;10.57;4.63;;;6.70;86.60;;;;;;5006992;28;20034;-63
2022/11/11 01:40:54;;;;;;;12.13;4.07;;;6.70;86.50;;;;;;5005319;28;20168;-63
2022/11/11 01:43:23;;;;;;;22.42;4.55;;;6.70;86.50;;;;;;5003319;28;20038;-64
2022/11/11 01:45:58;;;;;;;13.00;3.78;;;6.70;86.30;;;;;;5004748;28;20041;-61
2022/11/11 01:51:48;;;;;;;15.73;4.40;;;6.70;86.20;;;;;;5006278;28;20092;-63
2022/11/11 01:54:25;;;;;;;14.47;4.50;;;6.70;86.20;;;;;;5001003;28;20030;-61
2022/11/11 01:57:10;;;;;;;14.20;4.43;;;6.70;86.40;;;;;;5005842;28;20041;-64
2022/11/11 01:59:37;;;;;;;15.57;4.60;;;6.70;86.30;;;;;;5005789;28;20042;-63
2022/11/11 02:02:13;;;;;;;11.02;4.38;;;6.70;86.20;;;;;;4999244;28;20044;-64
2022/11/11 02:07:25;;;;;;;8.35;3.40;;;6.80;86.60;;;;;;5002346;28;20041;-61
2022/11/11 02:09:52;;;;;;;13.20;4.20;;;6.80;86.70;;;;;;5006072;28;20397;-62
2022/11/11 02:15:04;;;;;;;11.95;3.97;;;6.80;86.70;;;;;;5007145;28;20116;-63
2022/11/11 02:17:31;;;;;;;10.70;4.00;;;6.80;86.70;;;;;;5003614;28;20064;-61
2022/11/11 02:19:58;;;;;;;19.95;4.40;;;6.80;86.70;;;;;;5004436;28;20034;-61
2022/11/11 02:23:05;;;;;;;16.58;4.35;;;6.80;86.60;;;;;;5003499;28;20492;-62
2022/11/11 02:25:32;;;;;;;17.00;4.40;;;6.80;86.90;;;;;;4959094;28;20411;-62
2022/11/11 02:28:03;;;;;;;17.38;3.95;;;6.80;86.60;;;;;;4960855;28;20043;-63
2022/11/11 02:30:29;;;;;;;11.57;3.60;;;6.80;86.60;;;;;;4986212;28;20396;-61
2022/11/11 02:32:54;;;;;;;23.52;3.92;;;6.80;86.60;;;;;;5008466;28;20041;-62
2022/11/11 02:35:41;;;;;;;20.58;3.80;;;6.80;86.60;;;;;;5008727;28;20118;-62
2022/11/11 02:38:10;;;;;;;7.90;3.67;;;6.80;86.90;;;;;;5004792;28;20030;-61
2022/11/11 02:43:30;;;;;;;23.27;4.03;;;6.90;86.90;;;;;;5006377;28;20469;-61
2022/11/11 02:45:57;;;;;;;43.88;5.10;;;6.90;86.70;;;;;;5001299;28;20120;-62
2022/11/11 02:48:23;;;;;;;38.10;3.88;;;6.80;87.30;;;;;;5002962;28;20468;-62
2022/11/11 02:50:49;;;;;;;6.82;3.50;;;6.80;86.90;;;;;;5000934;28;20034;-63
2022/11/11 02:53:15;;;;;;;12.07;3.60;;;6.80;85.90;;;;;;5002852;28;20100;-61
2022/11/11 02:55:41;;;;;;;8.68;3.70;;;6.80;86.00;;;;;;5003072;28;20038;-61
2022/11/11 02:58:07;;;;;;;12.30;3.80;;;6.70;86.20;;;;;;5005108;28;20034;-63
2022/11/11 03:00:33;;;;;;;17.35;3.60;;;6.70;86.50;;;;;;5003670;28;20038;-64
2022/11/11 03:02:59;;;;;;;7.85;3.90;;;6.60;86.50;;;;;;5003234;28;20041;-62
2022/11/11 03:05:24;;;;;;;11.48;3.88;;;6.60;86.70;;;;;;5004863;28;20145;-62
2022/11/11 03:07:50;;;;;;;8.13;3.92;;;6.60;87.00;;;;;;5002389;28;20509;-63
2022/11/11 03:10:15;;;;;;;4.05;3.60;;;6.60;87.10;;;;;;5002645;28;20048;-63
2022/11/11 03:12:41;;;;;;;11.93;3.78;;;6.70;87.20;;;;;;5001354;28;20038;-61
2022/11/11 03:15:08;;;;;;;10.07;4.00;;;6.70;87.30;;;;;;5001241;28;20457;-62
2022/11/11 03:17:39;;;;;;;5.38;3.60;;;6.70;87.30;;;;;;5000973;28;20045;-62
2022/11/11 03:23:05;;;;;;;6.68;3.72;;;6.80;87.00;;;;;;5004367;28;20037;-63
2022/11/11 03:25:38;;;;;;;30.30;4.22;;;6.80;86.80;;;;;;5003822;28;20034;-63
2022/11/11 03:28:24;;;;;;;12.82;4.00;;;6.80;86.70;;;;;;5002106;28;20033;-62
2022/11/11 03:30:50;;;;;;;11.65;4.13;;;6.80;86.90;;;;;;5005969;28;20033;-61
2022/11/11 03:33:17;;;;;;;10.35;4.40;;;6.80;86.70;;;;;;5005726;28;20350;-62
2022/11/11 03:35:45;;;;;;;22.05;4.78;;;6.80;86.90;;;;;;5004481;28;20034;-61
2022/11/11 03:38:15;;;;;;;26.52;5.32;;;6.80;87.10;;;;;;5005674;28;20026;-62
2022/11/11 03:40:47;;;;;;;34.13;4.95;;;6.80;87.30;;;;;;4998828;28;20049;-61
2022/11/11 03:43:15;;;;;;;18.92;4.97;;;6.80;87.40;;;;;;5004080;28;20062;-61
2022/11/11 03:45:41;;;;;;;18.60;4.15;;;6.80;87.30;;;;;;5002502;28;20493;-63
2022/11/11 03:48:07;;;;;;;20.90;4.05;;;6.80;87.20;;;;;;5001733;28;20058;-61
2022/11/11 03:50:33;;;;;;;23.33;3.78;;;6.80;87.10;;;;;;5003436;28;20064;-63
2022/11/11 03:52:58;;;;;;;20.35;4.22;;;6.80;86.90;;;;;;5000997;28;20081;-62
2022/11/11 03:55:24;;;;;;;14.07;3.70;;;6.80;86.80;;;;;;5005243;28;20461;-63
2022/11/11 03:57:50;;;;;;;18.73;4.18;;;6.80;86.90;;;;;;5003480;28;20397;-61
2022/11/11 04:00:19;;;;;;;18.55;3.83;;;6.90;86.80;;;;;;5004205;28;20040;-63
2022/11/11 04:11:18;;;;;;;5.93;3.80;;;6.70;86.70;;;;;;5000681;28;20431;-63
2022/11/11 04:16:31;;;;;;;18.50;3.65;;;6.60;86.90;;;;;;5007818;28;20627;-61
2022/11/11 04:21:44;;;;;;;21.83;4.20;;;6.60;87.00;;;;;;5006264;28;20041;-63
2022/11/11 04:27:04;;;;;;;19.35;4.60;;;6.60;87.00;;;;;;5006035;28;20417;-61
2022/11/11 04:29:30;;;;;;;8.02;3.92;;;6.50;87.20;;;;;;5006682;28;20034;-64
2022/11/11 04:34:55;;;;;;;31.45;4.18;;;6.60;87.50;;;;;;5007814;28;20076;-62
2022/11/11 04:37:22;;;;;;;38.10;4.10;;;6.60;87.50;;;;;;5008596;28;20046;-63
2022/11/11 04:42:33;;;;;;;21.23;4.25;;;6.60;87.30;;;;;;5007690;28;20048;-61
2022/11/11 04:47:53;;;;;;;7.10;3.75;;;6.60;87.30;;;;;;5007501;28;20081;-63
2022/11/11 04:50:19;;;;;;;13.80;3.92;;;6.60;87.60;;;;;;5006759;28;20057;-62
2022/11/11 04:52:45;;;;;;;14.75;3.38;;;6.60;87.50;;;;;;5005719;28;20618;-61
2022/11/11 04:57:55;;;;;;;17.23;3.90;;;6.60;86.90;;;;;;5006388;28;20084;-61
2022/11/11 05:00:20;;;;;;;38.67;4.10;;;6.50;86.70;;;;;;5005333;28;20075;-63
2022/11/11 05:10:59;;;;;;;19.90;4.60;;;6.30;86.50;;;;;;5005809;28;20057;-64
2022/11/11 05:21:56;;;;;;;6.72;4.07;;;6.00;87.70;;;;;;4998681;28;20084;-63
2022/11/11 05:27:05;;;;;;;16.60;4.28;;;6.00;88.20;;;;;;5002339;28;20122;-63
2022/11/11 05:29:31;;;;;;;35.75;4.18;;;5.90;88.20;;;;;;4996765;28;20046;-64
2022/11/11 05:31:56;;;;;;;19.95;4.53;;;5.90;88.20;;;;;;4989368;28;20041;-63
2022/11/11 05:34:22;;;;;;;18.85;4.50;;;5.90;88.00;;;;;;5001628;28;20464;-63
2022/11/11 05:36:47;;;;;;;28.67;4.63;;;5.90;87.90;;;;;;4997709;28;20579;-63
2022/11/11 05:39:13;;;;;;;33.30;4.80;;;5.90;87.90;;;;;;4992417;28;20089;-64
2022/11/11 05:41:39;;;;;;;27.80;5.30;;;5.90;87.90;;;;;;5000844;28;20088;-65
2022/11/11 05:44:04;;;;;;;30.67;5.70;;;5.80;87.90;;;;;;5001041;28;20085;-64
2022/11/11 05:46:30;;;;;;;70.72;6.40;;;5.80;88.00;;;;;;4999681;28;20510;-65
2022/11/11 05:49:13;;;;;;;59.45;5.47;;;5.80;88.00;;;;;;5001813;28;20398;-61
2022/11/11 05:51:39;;;;;;;61.55;5.25;;;5.70;87.90;;;;;;5001392;28;20497;-62
2022/11/11 05:54:05;;;;;;;31.85;5.35;;;5.70;88.00;;;;;;5000856;28;20041;-64
2022/11/11 05:56:30;;;;;;;51.15;6.72;;;5.60;88.00;;;;;;4998702;28;20033;-64
2022/11/11 05:58:56;;;;;;;34.90;6.03;;;5.60;88.30;;;;;;5001076;28;20121;-64
2022/11/11 06:01:22;;;;;;;30.42;5.30;;;5.50;88.40;;;;;;5002337;28;20034;-63
2022/11/11 06:03:47;;;;;;;34.67;5.93;;;5.50;88.70;;;;;;5002857;28;20157;-64
2022/11/11 06:06:13;;;;;;;11.45;4.50;;;5.40;88.90;;;;;;4999406;28;20061;-64
2022/11/11 06:08:39;;;;;;;20.75;4.90;;;5.50;89.30;;;;;;5000032;28;20040;-64
2022/11/11 06:11:05;;;;;;;29.33;5.88;;;5.50;89.40;;;;;;4996412;28;20064;-63
2022/11/11 06:13:30;;;;;;;25.58;10.77;;;5.50;89.60;;;;;;4996300;28;20041;-64
2022/11/11 06:15:57;;;;;;;43.42;7.07;;;5.50;89.80;;;;;;5000745;28;20145;-64
2022/11/11 06:18:23;;;;;;;24.67;6.05;;;5.60;89.80;;;;;;5000236;28;20034;-64
2022/11/11 06:20:53;;;;;;;17.20;8.60;;;5.60;89.80;;;;;;4998460;28;20038;-64
2022/11/11 06:23:18;;;;;;;18.33;5.85;;;5.70;90.20;;;;;;4999684;28;20117;-64
2022/11/11 06:28:28;;;;;;;27.63;5.47;;;5.70;89.40;;;;;;4999584;28;20092;-64
2022/11/11 06:30:54;;;;;;;17.83;6.65;;;5.80;89.30;;;;;;4997660;28;20038;-64
2022/11/11 06:33:20;;;;;;;6.80;6.10;;;5.80;89.30;;;;;;4997884;28;20046;-64
2022/11/11 06:35:47;;;;;;;12.35;5.93;;;5.80;89.30;;;;;;4999871;28;20043;-64
2022/11/11 06:38:12;;;;;;;8.20;5.65;;;5.80;89.30;;;;;;4998574;28;20042;-64
2022/11/11 06:40:38;;;;;;;19.45;5.68;;;5.90;89.20;;;;;;4998013;28;20041;-64
2022/11/11 06:43:04;;;;;;;34.42;5.72;;;5.90;88.90;;;;;;4998270;28;20504;-62
2022/11/11 06:45:32;;;;;;;10.50;5.07;;;5.90;88.70;;;;;;4998376;28;20042;-64
2022/11/11 06:47:57;;;;;;;41.10;6.85;;;5.90;88.40;;;;;;4999033;28;20045;-62
2022/11/11 06:50:23;;;;;;;14.18;5.25;;;5.90;88.50;;;;;;4998717;28;20485;-60
2022/11/11 06:52:48;;;;;;;24.38;5.45;;;6.00;88.60;;;;;;4999117;28;20064;-62
2022/11/11 06:55:14;;;;;;;17.52;5.90;;;5.90;88.60;;;;;;4998664;28;20084;-65
2022/11/11 06:57:40;;;;;;;10.82;5.65;;;5.90;88.70;;;;;;4999215;28;20041;-64
2022/11/11 07:00:06;;;;;;;20.90;6.30;;;6.00;88.70;;;;;;4999334;28;20476;-64
2022/11/11 07:02:32;;;;;;;36.50;6.43;;;6.00;88.80;;;;;;4998564;28;20111;-65
2022/11/11 07:04:59;;;;;;;23.73;7.68;;;6.00;88.80;;;;;;5000471;28;20057;-63
2022/11/11 07:07:24;;;;;;;14.73;7.10;;;6.10;88.60;;;;;;4997854;28;20046;-64
2022/11/11 07:09:50;;;;;;;13.77;6.15;;;6.10;88.40;;;;;;4998276;28;20042;-64
2022/11/11 07:12:16;;;;;;;17.00;6.43;;;6.10;88.30;;;;;;4998471;28;20087;-63
2022/11/11 07:14:42;;;;;;;13.93;6.03;;;6.10;88.40;;;;;;5001609;28;20040;-62
2022/11/11 07:17:07;;;;;;;24.27;6.88;;;6.10;88.30;;;;;;5001101;28;20133;-62
2022/11/11 07:19:33;;;;;;;15.35;6.28;;;6.10;88.40;;;;;;5000488;28;20037;-63
2022/11/11 07:21:59;;;;;;;12.63;6.55;;;6.10;88.30;;;;;;4999565;28;20066;-62
2022/11/11 07:24:24;;;;;;;12.63;6.38;;;6.10;88.40;;;;;;5000109;28;20212;-62
2022/11/11 07:26:50;;;;;;;12.48;6.82;;;6.20;88.60;;;;;;5000173;28;20056;-63
2022/11/11 07:29:15;;;;;;;10.82;6.38;;;6.20;88.50;;;;;;5002352;28;20064;-62
2022/11/11 07:31:41;;;;;;;19.73;6.40;;;6.20;88.30;;;;;;4998329;28;20577;-63
2022/11/11 07:34:07;;;;;;;18.17;7.60;;;6.20;88.40;;;;;;5002792;28;20044;-64
2022/11/11 07:36:33;;;;;;;16.20;6.53;;;6.20;88.60;;;;;;5001455;28;20042;-65
2022/11/11 07:38:59;;;;;;;14.15;6.22;;;6.20;88.70;;;;;;4996716;28;20227;-64
2022/11/11 07:41:24;;;;;;;14.45;5.90;;;6.20;88.90;;;;;;4999183;28;20065;-65
2022/11/11 07:43:50;;;;;;;12.20;5.63;;;6.20;89.10;;;;;;4999858;28;20030;-64
2022/11/11 07:46:15;;;;;;;9.88;5.82;;;6.20;89.10;;;;;;5001773;28;20033;-65
2022/11/11 07:48:41;;;;;;;11.50;6.68;;;6.20;89.10;;;;;;5000958;28;20034;-64
2022/11/11 07:51:07;;;;;;;10.57;6.50;;;6.20;89.00;;;;;;4998808;28;20030;-64
2022/11/11 07:53:32;;;;;;;6.95;5.82;;;6.30;89.10;;;;;;5001928;28;20038;-64
2022/11/11 07:55:58;;;;;;;9.32;5.88;;;6.30;89.10;;;;;;5000641;28;20038;-65
2022/11/11 07:58:23;;;;;;;15.20;5.93;;;6.30;89.10;;;;;;5002070;28;20034;-64
2022/11/11 08:00:49;;;;;;;13.77;5.57;;;6.40;89.40;;;;;;4998316;28;20034;-64
2022/11/11 08:03:14;;;;;;;11.77;5.60;;;6.40;89.40;;;;;;5000837;28;20108;-64
2022/11/11 08:05:40;;;;;;;10.05;5.82;;;6.50;89.50;;;;;;4998596;28;20066;-64
2022/11/11 08:08:07;;;;;;;9.75;5.97;;;6.50;89.60;;;;;;5000654;28;20034;-62
2022/11/11 08:10:33;;;;;;;8.02;5.80;;;6.50;89.80;;;;;;4996217;28;20059;-66
2022/11/11 08:15:45;;;;;;;8.07;5.53;;;6.60;89.80;;;;;;5000325;28;21355;-64
2022/11/11 08:18:11;;;;;;;10.60;6.30;;;6.60;89.50;;;;;;5000708;28;20294;-63
2022/11/11 08:20:37;;;;;;;11.43;5.40;;;6.70;89.50;;;;;;4999103;28;21699;-61
2022/11/11 08:23:03;;;;;;;9.18;5.40;;;6.70;89.40;;;;;;5002594;28;20482;-63
2022/11/11 08:25:30;;;;;;;6.93;5.63;;;6.70;89.40;;;;;;4998267;28;20549;-63
2022/11/11 08:28:00;;;;;;;7.10;5.80;;;6.70;89.50;;;;;;4997732;28;20297;-63
2022/11/11 08:30:26;;;;;;;10.15;6.18;;;6.80;89.80;;;;;;4996751;28;20505;-63
2022/11/11 08:33:03;;;;;;;8.35;5.50;;;6.80;89.80;;;;;;4993819;28;20029;-62
2022/11/11 08:35:30;;;;;;;8.57;5.80;;;6.80;90.00;;;;;;4998407;28;20034;-64
2022/11/11 08:37:59;;;;;;;8.35;5.70;;;6.80;89.70;;;;;;4997459;28;20509;-64
2022/11/11 08:40:25;;;;;;;10.07;5.75;;;6.80;89.90;;;;;;4997465;28;20038;-64
2022/11/11 08:42:54;;;;;;;11.30;6.53;;;6.80;90.00;;;;;;4999409;28;20042;-65
2022/11/11 08:45:19;;;;;;;10.57;6.40;;;6.90;90.00;;;;;;4996993;28;20026;-64
2022/11/11 08:47:45;;;;;;;7.43;6.50;;;7.00;90.10;;;;;;4998817;28;20394;-64
2022/11/11 08:50:12;;;;;;;8.77;6.68;;;7.00;90.20;;;;;;4997932;28;20025;-61
2022/11/11 08:52:38;;;;;;;7.20;6.43;;;7.00;90.30;;;;;;4996266;28;20117;-64
2022/11/11 08:55:04;;;;;;;7.93;6.90;;;7.10;90.70;;;;;;4995301;28;20057;-63
2022/11/11 08:57:29;;;;;;;8.35;6.70;;;7.10;90.40;;;;;;4995304;28;20048;-61
2022/11/11 08:59:55;;;;;;;8.60;7.25;;;7.20;90.40;;;;;;4998784;28;20108;-63
2022/11/11 09:02:20;;;;;;;7.90;6.68;;;7.30;90.50;;;;;;4998996;28;20037;-63
2022/11/11 09:04:46;;;;;;;9.95;7.00;;;7.40;90.60;;;;;;4996779;28;20050;-63
2022/11/11 09:07:12;;;;;;;8.13;7.10;;;7.40;90.60;;;;;;4997205;28;20387;-63
2022/11/11 09:09:38;;;;;;;11.30;7.75;;;7.50;90.70;;;;;;4998442;28;20042;-63
2022/11/11 09:12:03;;;;;;;9.43;7.80;;;7.60;90.70;;;;;;4998616;28;20405;-63
2022/11/11 09:14:29;;;;;;;8.50;7.30;;;7.70;90.80;;;;;;4998671;28;20041;-63
2022/11/11 09:16:55;;;;;;;10.55;8.00;;;7.80;90.80;;;;;;5000228;28;20049;-64
2022/11/11 09:19:20;;;;;;;11.32;8.15;;;7.80;90.80;;;;;;4984200;28;20491;-64
2022/11/11 09:21:46;;;;;;;9.85;7.82;;;7.90;90.90;;;;;;4985180;28;20042;-64
2022/11/11 09:24:11;;;;;;;9.48;7.53;;;8.00;90.90;;;;;;4994102;28;20049;-65
2022/11/11 09:26:37;;;;;;;10.35;8.25;;;8.10;90.90;;;;;;5000073;28;20524;-63
2022/11/11 09:29:03;;;;;;;10.50;8.32;;;8.20;90.90;;;;;;4995083;28;20042;-64
2022/11/11 09:31:28;;;;;;;10.00;7.97;;;8.30;90.90;;;;;;4999223;28;20410;-65
2022/11/11 09:33:54;;;;;;;10.02;8.20;;;8.30;90.80;;;;;;4997192;28;20072;-64
2022/11/11 09:36:20;;;;;;;10.20;8.10;;;8.40;90.70;;;;;;4998771;28;20038;-63
2022/11/11 09:38:46;;;;;;;8.55;7.50;;;8.50;90.70;;;;;;4997693;28;20033;-62
2022/11/11 09:41:16;;;;;;;8.80;7.25;;;8.50;90.70;;;;;;4997843;28;20489;-64
2022/11/11 09:43:54;;;;;;;8.52;7.25;;;8.50;90.60;;;;;;4997535;28;20457;-62
2022/11/11 09:46:43;;;;;;;9.20;7.65;;;8.60;90.70;;;;;;4994740;28;20046;-63
2022/11/11 09:49:20;;;;;;;9.43;7.60;;;8.60;90.70;;;;;;4982138;28;20049;-64
2022/11/11 09:52:02;;;;;;;8.98;7.45;;;8.70;90.50;;;;;;4984913;28;20046;-64
2022/11/11 09:54:40;;;;;;;10.30;7.63;;;8.70;90.50;;;;;;4985380;28;20042;-64
2022/11/11 09:57:17;;;;;;;11.93;8.13;;;8.70;90.40;;;;;;4984683;28;20045;-63
2022/11/11 09:59:48;;;;;;;9.73;8.25;;;8.80;90.80;;;;;;4993207;28;20059;-63
2022/11/11 10:02:42;;;;;;;10.50;7.95;;;8.80;90.30;;;;;;4999501;28;20172;-63
2022/11/11 10:05:12;;;;;;;8.93;7.53;;;8.80;90.40;;;;;;4999482;28;20108;-63
2022/11/11 10:08:00;;;;;;;10.63;7.55;;;8.90;90.40;;;;;;4999582;28;20045;-64
2022/11/11 10:10:40;;;;;;;9.45;7.63;;;8.90;90.40;;;;;;4994736;28;20045;-62
2022/11/11 10:13:24;;;;;;;10.50;7.82;;;9.00;90.40;;;;;;5000417;28;20030;-63
2022/11/11 10:15:56;;;;;;;10.00;7.30;;;9.00;90.50;;;;;;5002936;28;20484;-64
2022/11/11 10:18:49;;;;;;;13.20;7.97;;;9.10;90.50;;;;;;4997219;28;20076;-64
2022/11/11 10:21:19;;;;;;;9.93;7.65;;;9.10;90.40;;;;;;4995962;28;20301;-63
2022/11/11 10:23:48;;;;;;;13.70;9.00;;;9.20;90.40;;;;;;4997052;28;20077;-64
2022/11/11 10:26:29;;;;;;;10.70;8.27;;;9.20;90.40;;;;;;5001911;28;20038;-63
2022/11/11 10:28:57;;;;;;;10.43;8.00;;;9.30;90.40;;;;;;4998160;28;20125;-64
2022/11/11 10:31:24;;;;;;;10.25;7.78;;;9.30;90.20;;;;;;5000551;28;20080;-61
2022/11/11 10:33:56;;;;;;;10.95;7.88;;;9.40;90.20;;;;;;5002630;28;20037;-64
2022/11/11 10:36:25;;;;;;;10.05;7.78;;;9.40;90.20;;;;;;4998412;28;20041;-64
2022/11/11 10:39:00;;;;;;;9.30;7.50;;;9.50;90.20;;;;;;4984730;28;20060;-62
2022/11/11 10:41:29;;;;;;;10.30;7.88;;;9.50;90.20;;;;;;4998016;28;20034;-64
2022/11/11 10:43:54;;;;;;;14.07;8.52;;;9.50;90.20;;;;;;5001386;28;20032;-63
2022/11/11 10:46:33;;;;;;;10.27;8.00;;;9.60;90.10;;;;;;5001109;28;20401;-62
2022/11/11 10:49:06;;;;;;;9.20;7.38;;;9.60;90.10;;;;;;5003679;28;20048;-63
2022/11/11 10:51:37;;;;;;;11.95;7.78;;;9.60;90.00;;;;;;5000336;28;20043;-63
2022/11/11 10:54:11;;;;;;;10.60;8.02;;;9.70;90.00;;;;;;5002575;28;20069;-62
2022/11/11 10:56:43;;;;;;;9.57;7.72;;;9.70;90.00;;;;;;4998796;28;20038;-63
2022/11/11 10:59:18;;;;;;;11.95;8.65;;;9.80;90.00;;;;;;5000204;28;20583;-62
2022/11/11 11:01:50;;;;;;;;;;;9.80;90.00;;;;;;5000879;28;20034;-64
2022/11/11 11:04:41;;;;;;;11.43;8.23;;;9.90;90.10;;;;;;4998964;28;19925;-62
2022/11/11 11:07:10;;;;;;;10.93;8.27;;;9.90;89.70;;;;;;5005207;28;20418;-62
2022/11/11 11:09:49;;;;;;;10.50;8.30;;;9.90;89.60;;;;;;5001625;28;20034;-62
2022/11/11 11:12:45;;;;;;;10.85;7.57;;;9.90;89.60;;;;;;4997162;28;20053;-63
2022/11/11 11:15:17;;;;;;;11.65;8.20;;;9.80;89.70;;;;;;5003975;28;20026;-63
2022/11/11 11:18:06;;;;;;;12.60;8.10;;;9.90;89.70;;;;;;5002088;28;20053;-64
2022/11/11 11:20:32;;;;;;;13.70;8.55;;;9.90;89.90;;;;;;5002343;28;20037;-62
2022/11/11 11:23:00;;;;;;;11.82;8.55;;;10.00;89.80;;;;;;5003444;28;20091;-64
2022/11/11 11:25:31;;;;;;;12.85;8.88;;;10.00;89.70;;;;;;5004068;28;20038;-62
2022/11/11 11:28:15;;;;;;;10.90;8.40;;;10.00;89.70;;;;;;5003530;28;20485;-63
2022/11/11 11:31:06;;;;;;;11.02;8.23;;;10.10;89.90;;;;;;5003081;28;20044;-62
2022/11/11 11:33:53;;;;;;;11.02;8.07;;;10.10;89.80;;;;;;5002692;28;20061;-62
2022/11/11 11:36:19;;;;;;;11.00;8.18;;;10.10;89.90;;;;;;4998904;28;20073;-62
2022/11/11 11:38:49;;;;;;;10.20;8.35;;;10.20;89.90;;;;;;5003566;28;20123;-62
2022/11/11 11:41:15;;;;;;;11.70;8.93;;;10.20;89.70;;;;;;5002820;28;20034;-63
2022/11/11 11:43:44;;;;;;;9.80;8.00;;;10.30;89.70;;;;;;4999902;28;20042;-63
2022/11/11 11:46:42;;;;;;;13.30;8.63;;;10.40;89.70;;;;;;5001901;28;20076;-63
2022/11/11 11:49:18;;;;;;;14.10;8.98;;;10.40;89.60;;;;;;5000739;28;20033;-62
2022/11/11 11:51:55;;;;;;;14.48;10.30;;;10.40;89.20;;;;;;5001935;28;20073;-63
2022/11/11 11:54:29;;;;;;;13.57;9.07;;;10.50;89.00;;;;;;5003752;28;20145;-63
2022/11/11 11:57:02;;;;;;;14.52;9.18;;;10.50;89.00;;;;;;5003318;28;20699;-62
2022/11/11 11:59:35;;;;;;;12.98;9.32;;;10.60;88.90;;;;;;4995030;28;20184;-61
2022/11/11 12:02:38;;;;;;;15.52;10.43;;;10.60;88.70;;;;;;4999389;28;20044;-62
2022/11/11 12:05:18;;;;;;;16.00;11.18;;;10.60;88.60;;;;;;5000382;28;20041;-62
2022/11/11 12:08:14;;;;;;;16.40;11.23;;;10.60;88.50;;;;;;4998143;28;20069;-64
2022/11/11 12:11:18;;;;;;;15.88;10.40;;;10.60;88.40;;;;;;4996841;28;20132;-61
2022/11/11 12:13:44;;;;;;;15.10;9.52;;;10.60;88.50;;;;;;4998350;28;20044;-63
2022/11/11 12:16:26;;;;;;;14.60;9.38;;;10.70;88.30;;;;;;5000052;28;20041;-63
2022/11/11 12:19:14;;;;;;;14.50;9.40;;;10.70;88.30;;;;;;5000456;28;20040;-62
2022/11/11 12:22:03;;;;;;;15.40;10.07;;;10.60;88.20;;;;;;5000475;28;20044;-61
2022/11/11 12:24:56;;;;;;;13.52;9.38;;;10.60;88.40;;;;;;4998472;28;20510;-64
2022/11/11 12:27:35;;;;;;;17.15;10.18;;;10.60;88.40;;;;;;5001415;28;20030;-63
2022/11/11 12:30:26;;;;;;;15.15;9.93;;;10.60;88.40;;;;;;5002083;28;20337;-63
2022/11/11 12:33:20;;;;;;;16.58;10.52;;;10.60;88.40;;;;;;5001716;28;20417;-61
2022/11/11 12:36:23;;;;;;;16.25;10.02;;;10.60;88.30;;;;;;5000338;28;20571;-63
2022/11/11 12:38:56;;;;;;;17.33;9.65;;;10.60;88.50;;;;;;5002086;28;20436;-62
2022/11/11 12:41:40;;;;;;;16.90;10.65;;;10.60;88.50;;;;;;5001856;28;20041;-62
2022/11/11 12:44:09;;;;;;;17.85;11.30;;;10.60;88.50;;;;;;5000985;28;20037;-62
2022/11/11 12:47:21;;;;;;;16.15;10.45;;;10.60;88.30;;;;;;4998417;28;20054;-62
2022/11/11 12:50:19;;;;;;;19.90;12.90;;;10.60;88.30;;;;;;5002158;28;20492;-62
2022/11/11 12:52:50;;;;;;;22.00;13.18;;;10.70;88.30;;;;;;5002646;28;20034;-62
2022/11/11 12:55:35;;;;;;;16.20;11.15;;;10.60;88.00;;;;;;5001669;28;20091;-64
2022/11/11 12:58:36;;;;;;;17.27;10.52;;;10.60;87.90;;;;;;4996467;28;20053;-61
2022/11/11 13:01:27;;;;;;;14.93;10.20;;;10.70;88.00;;;;;;4983544;28;20034;-63
2022/11/11 13:04:15;;;;;;;16.75;10.75;;;10.60;88.10;;;;;;4995490;28;20033;-62
2022/11/11 13:06:55;;;;;;;16.65;10.48;;;10.60;88.10;;;;;;4994712;28;20512;-63
2022/11/11 13:09:56;;;;;;;16.30;10.52;;;10.70;88.10;;;;;;5000053;28;20413;-63
2022/11/11 13:12:32;;;;;;;18.30;9.68;;;10.70;88.10;;;;;;4992379;28;20050;-63
2022/11/11 13:15:09;;;;;;;15.80;10.73;;;10.80;88.00;;;;;;4995726;28;20042;-63
2022/11/11 13:17:36;;;;;;;17.17;10.98;;;10.70;88.00;;;;;;5000745;28;20184;-61
2022/11/11 13:20:22;;;;;;;15.82;10.25;;;10.80;88.00;;;;;;5003625;28;20033;-63
2022/11/11 13:22:49;;;;;;;17.58;10.68;;;10.70;87.80;;;;;;5003163;28;20038;-61
2022/11/11 13:25:23;;;;;;;17.30;11.02;;;10.70;87.90;;;;;;5007618;28;20057;-62
2022/11/11 13:28:06;;;;;;;17.15;10.95;;;10.70;87.90;;;;;;5007159;28;20196;-62
2022/11/11 13:30:44;;;;;;;17.15;10.68;;;10.80;87.80;;;;;;5007227;28;20136;-63
2022/11/11 13:33:35;;;;;;;15.85;10.27;;;10.80;87.80;;;;;;5008459;28;20449;-61
2022/11/11 13:36:03;;;;;;;17.38;10.32;;;10.80;87.80;;;;;;5000394;28;20041;-63
2022/11/11 13:38:38;;;;;;;17.00;11.00;;;10.80;87.60;;;;;;5004958;28;20128;-61
2022/11/11 13:41:07;;;;;;;17.25;10.32;;;10.80;87.60;;;;;;5008293;28;20041;-64
2022/11/11 13:43:40;;;;;;;16.08;10.27;;;10.80;87.40;;;;;;5009058;28;20042;-63
2022/11/11 13:46:11;;;;;;;19.75;11.02;;;10.80;87.50;;;;;;5009119;28;20048;-62
2022/11/11 13:48:46;;;;;;;19.65;10.65;;;10.80;87.60;;;;;;5008867;28;20617;-63
2022/11/11 13:51:24;;;;;;;14.52;10.20;;;10.80;87.80;;;;;;5008460;28;20179;-62
2022/11/11 13:53:50;;;;;;;20.95;10.95;;;10.80;87.80;;;;;;5006585;28;20038;-63
2022/11/11 13:56:33;;;;;;;16.75;10.52;;;10.80;87.80;;;;;;5003189;28;20041;-62
2022/11/11 13:59:00;;;;;;;18.30;11.32;;;10.80;87.80;;;;;;5005489;28;20045;-60
2022/11/11 14:01:36;;;;;;;18.80;11.02;;;10.80;87.80;;;;;;5004320;28;20035;-63
2022/11/11 14:04:06;;;;;;;17.00;11.02;;;10.80;87.80;;;;;;5006116;28;20037;-62
2022/11/11 14:06:36;;;;;;;16.02;11.00;;;10.80;88.00;;;;;;4999291;28;20050;-63
2022/11/11 14:09:03;;;;;;;16.40;10.50;;;10.80;87.80;;;;;;5004923;28;20485;-61
2022/11/11 14:11:33;;;;;;;13.93;9.50;;;10.80;87.70;;;;;;5001006;28;20042;-63
2022/11/11 14:14:31;;;;;;;14.73;9.57;;;10.80;87.80;;;;;;5003292;28;20453;-63
2022/11/11 14:17:10;;;;;;;16.13;10.48;;;10.80;87.80;;;;;;4999256;28;20053;-62
2022/11/11 14:19:36;;;;;;;17.73;11.60;;;10.80;87.60;;;;;;5004857;28;20479;-62
2022/11/11 14:22:30;;;;;;;17.23;10.60;;;10.80;87.40;;;;;;5001638;28;20034;-61
2022/11/11 14:25:21;;;;;;;15.63;10.25;;;10.80;87.60;;;;;;5007152;28;20333;-62
2022/11/11 14:27:47;;;;;;;18.17;11.25;;;10.90;87.70;;;;;;5009176;28;20041;-63